Terminal Aerodrome Forecast
Issued by NWS

Home | Current Version | Previous Version | Text Only | Print | Product List | Glossary Off
Versions: 1 2 3 4 5 6 7 8 9 10 11 12 13 14

194
FTUS43 KFGF 182334
TAFBJI
TAF
KBJI 182334Z 1900/1924 30012G18KT P6SM -SN OVC015
     FM190100 30009KT P6SM SCT140
     FM191200 25005KT P6SM BKN090
     FM191700 23006KT P6SM SCT120=

USA.gov is the U.S. government's official web portal to all federal, state and local government web resources and services.